createdAt,value
2018-07-07T00:00:38.019Z,16.00
2018-07-07T00:03:08.280Z,15.90
2018-07-07T00:05:38.308Z,14.70
2018-07-07T00:08:08.113Z,15.20
2018-07-07T00:10:37.899Z,15.53
2018-07-07T00:13:08.343Z,15.80
2018-07-07T00:15:38.225Z,16.63
2018-07-07T00:18:08.472Z,15.57
2018-07-07T00:20:38.796Z,16.20
2018-07-07T00:23:09.737Z,17.13
2018-07-07T00:25:39.906Z,15.93
2018-07-07T00:28:10.158Z,16.90
2018-07-07T00:30:40.376Z,15.87
2018-07-07T00:33:10.611Z,17.17
2018-07-07T00:35:40.684Z,16.80
2018-07-07T00:38:11.012Z,16.60
2018-07-07T00:40:41.344Z,17.03
2018-07-07T00:43:11.596Z,18.13
2018-07-07T00:45:41.473Z,17.00
2018-07-07T00:48:11.852Z,18.67
2018-07-07T00:50:41.913Z,18.00
2018-07-07T00:53:11.829Z,19.40
2018-07-07T00:55:41.827Z,20.67
2018-07-07T00:58:11.768Z,20.73
2018-07-07T01:00:50.904Z,22.37
2018-07-07T01:03:21.613Z,20.60
2018-07-07T01:05:52.585Z,21.10
2018-07-07T01:08:22.389Z,23.07
2018-07-07T01:10:52.972Z,23.73
2018-07-07T01:13:23.307Z,24.33
2018-07-07T01:15:53.367Z,25.37
2018-07-07T01:18:23.367Z,24.83
2018-07-07T01:20:53.417Z,28.23
2018-07-07T01:23:23.755Z,27.53
2018-07-07T01:25:53.694Z,26.63
2018-07-07T01:28:23.640Z,25.30
2018-07-07T01:30:54.040Z,25.70
2018-07-07T01:33:24.467Z,25.43
2018-07-07T01:35:54.424Z,25.30
2018-07-07T01:38:24.329Z,24.70
2018-07-07T01:40:54.310Z,25.43
2018-07-07T01:43:24.265Z,25.57
2018-07-07T01:45:54.248Z,24.60
2018-07-07T01:48:24.248Z,26.23
2018-07-07T01:50:54.547Z,27.00
2018-07-07T01:53:24.803Z,23.60
2018-07-07T01:55:54.915Z,24.47
2018-07-07T01:58:25.126Z,23.27
2018-07-07T02:00:55.085Z,23.33
2018-07-07T02:03:25.122Z,22.73
2018-07-07T02:05:55.044Z,28.07
2018-07-07T02:08:24.771Z,26.00
2018-07-07T02:10:54.610Z,25.10
2018-07-07T02:13:24.739Z,25.40
2018-07-07T02:15:54.989Z,24.87
2018-07-07T02:18:25.026Z,24.27
2018-07-07T02:20:54.961Z,22.60
2018-07-07T02:23:24.903Z,23.43
2018-07-07T02:25:55.153Z,23.60
2018-07-07T02:28:25.163Z,24.27
2018-07-07T02:30:55.664Z,23.97
2018-07-07T02:33:25.710Z,25.20
2018-07-07T02:35:55.701Z,22.90
2018-07-07T02:38:25.717Z,24.83
2018-07-07T02:40:55.628Z,25.83
2018-07-07T02:43:25.922Z,23.60
2018-07-07T02:45:55.879Z,23.43
2018-07-07T02:48:26.567Z,24.23
2018-07-07T02:50:56.487Z,23.57
2018-07-07T02:53:26.870Z,24.40
2018-07-07T02:55:56.723Z,23.37
2018-07-07T02:58:26.821Z,22.67
2018-07-07T03:00:56.756Z,24.03
2018-07-07T03:03:27.370Z,22.83
2018-07-07T03:05:57.296Z,22.07
2018-07-07T03:08:27.045Z,22.53
2018-07-07T03:10:57.105Z,22.70
2018-07-07T03:13:27.174Z,21.50
2018-07-07T03:15:57.161Z,23.73
2018-07-07T03:18:27.489Z,20.73
2018-07-07T03:20:58.397Z,21.00
2018-07-07T03:23:28.392Z,21.27
2018-07-07T03:25:58.506Z,20.63
2018-07-07T03:28:28.823Z,19.30
2018-07-07T03:30:59.995Z,15.93
2018-07-07T03:33:30.389Z,14.13
2018-07-07T03:36:00.509Z,15.33
2018-07-07T03:38:30.582Z,16.00
2018-07-07T03:41:00.411Z,14.53
2018-07-07T03:43:30.534Z,13.80
2018-07-07T03:46:00.596Z,13.00
2018-07-07T03:48:30.589Z,12.73
2018-07-07T03:51:00.560Z,13.80
2018-07-07T03:53:30.607Z,13.00
2018-07-07T03:56:00.577Z,11.80
2018-07-07T03:58:30.557Z,11.60
2018-07-07T04:01:00.844Z,12.27
2018-07-07T04:03:31.115Z,11.57
2018-07-07T04:06:01.524Z,11.13
2018-07-07T04:08:31.458Z,10.63
2018-07-07T04:11:01.567Z,9.80
2018-07-07T04:13:31.487Z,11.00
2018-07-07T04:16:01.501Z,11.83
2018-07-07T04:18:34.629Z,11.60
2018-07-07T04:21:05.827Z,10.03
2018-07-07T04:23:36.141Z,12.40
2018-07-07T04:26:06.054Z,11.63
2018-07-07T04:28:36.175Z,12.13
2018-07-07T04:31:06.384Z,11.77
2018-07-07T04:33:36.585Z,12.57
2018-07-07T04:36:06.570Z,13.20
2018-07-07T04:38:36.520Z,13.80
2018-07-07T04:41:06.419Z,14.27
2018-07-07T04:43:36.882Z,14.43
2018-07-07T04:46:07.073Z,14.30
2018-07-07T04:48:37.089Z,16.73
2018-07-07T04:51:07.116Z,14.80
2018-07-07T04:53:37.157Z,15.47
2018-07-07T04:56:07.263Z,19.93
2018-07-07T04:58:37.137Z,17.73
2018-07-07T05:01:07.243Z,15.53
2018-07-07T05:03:37.349Z,17.23
2018-07-07T05:06:07.401Z,16.87
2018-07-07T05:08:37.190Z,14.77
2018-07-07T05:11:07.569Z,14.47
2018-07-07T05:13:37.852Z,14.17
2018-07-07T05:16:07.974Z,14.03
2018-07-07T05:18:38.284Z,15.70
2018-07-07T05:21:08.401Z,15.87
2018-07-07T05:23:38.237Z,13.73
2018-07-07T05:26:08.663Z,13.70
2018-07-07T05:28:38.790Z,13.47
2018-07-07T05:31:09.151Z,17.03
2018-07-07T05:33:39.063Z,16.13
2018-07-07T05:36:09.240Z,14.07
2018-07-07T05:38:39.287Z,14.30
2018-07-07T05:41:09.585Z,14.93
2018-07-07T05:43:39.561Z,12.70
2018-07-07T05:46:09.820Z,13.93
2018-07-07T05:48:40.962Z,14.47
2018-07-07T05:51:11.116Z,18.13
2018-07-07T05:53:41.039Z,16.10
2018-07-07T05:56:11.169Z,20.20
2018-07-07T05:58:41.093Z,17.80
2018-07-07T06:01:11.152Z,18.73
2018-07-07T06:03:41.170Z,17.30
2018-07-07T06:06:11.156Z,17.83
2018-07-07T06:08:41.039Z,17.17
2018-07-07T06:11:10.965Z,15.83
2018-07-07T06:13:41.315Z,15.17
2018-07-07T06:16:11.467Z,20.00
2018-07-07T06:18:41.516Z,18.43
2018-07-07T06:21:11.577Z,23.00
2018-07-07T06:23:42.188Z,17.80
2018-07-07T06:26:13.010Z,16.97
2018-07-07T06:28:43.155Z,18.27
2018-07-07T06:31:13.569Z,16.43
2018-07-07T06:33:44.093Z,17.03
2018-07-07T06:36:15.779Z,15.07
2018-07-07T06:38:45.709Z,16.27
2018-07-07T06:41:15.617Z,14.67
2018-07-07T06:43:45.543Z,19.03
2018-07-07T06:46:15.541Z,16.17
2018-07-07T06:48:45.595Z,15.50
2018-07-07T06:51:15.537Z,20.70
2018-07-07T06:53:45.560Z,9.93
2018-07-07T06:56:15.474Z,14.13
2018-07-07T06:58:45.492Z,12.57
2018-07-07T07:01:15.486Z,12.80
2018-07-07T07:03:45.588Z,11.40
2018-07-07T07:06:15.625Z,11.07
2018-07-07T07:08:45.391Z,9.83
2018-07-07T07:11:15.251Z,9.20
2018-07-07T07:13:45.206Z,10.20
2018-07-07T07:16:15.296Z,10.33
2018-07-07T07:18:45.615Z,9.33
2018-07-07T07:21:15.813Z,13.70
2018-07-07T07:23:45.876Z,10.73
2018-07-07T07:26:15.943Z,10.73
2018-07-07T07:28:45.947Z,10.00
2018-07-07T07:31:16.268Z,9.50
2018-07-07T07:33:46.483Z,8.40
2018-07-07T07:36:21.345Z,9.10
2018-07-07T07:38:51.713Z,10.07
2018-07-07T07:41:21.671Z,12.57
2018-07-07T07:43:51.677Z,10.27
2018-07-07T07:46:21.673Z,11.33
2018-07-07T07:48:51.724Z,8.53
2018-07-07T07:51:21.764Z,10.40
2018-07-07T07:53:51.748Z,9.30
2018-07-07T07:56:21.783Z,8.83
2018-07-07T07:58:51.915Z,10.63
2018-07-07T08:01:22.139Z,9.03
2018-07-07T08:03:52.044Z,9.27
2018-07-07T08:06:22.509Z,9.10
2018-07-07T08:08:52.204Z,8.27
2018-07-07T08:11:22.457Z,9.63
2018-07-07T08:13:52.437Z,9.43
2018-07-07T08:16:22.355Z,9.50
2018-07-07T08:18:52.374Z,9.17
2018-07-07T08:21:22.329Z,7.97
2018-07-07T08:23:52.304Z,8.03
2018-07-07T08:26:22.237Z,13.37
2018-07-07T08:28:52.113Z,10.73
2018-07-07T08:31:22.404Z,9.53
2018-07-07T08:33:52.305Z,10.20
2018-07-07T08:36:22.372Z,9.70
2018-07-07T08:38:52.713Z,8.63
2018-07-07T08:41:22.894Z,10.90
2018-07-07T08:43:52.985Z,7.73
2018-07-07T08:46:23.168Z,7.60
2018-07-07T08:48:53.183Z,12.47
2018-07-07T08:51:23.461Z,7.17
2018-07-07T08:53:53.375Z,7.40
2018-07-07T08:56:23.498Z,7.60
2018-07-07T08:58:53.796Z,7.00
2018-07-07T09:01:23.631Z,8.03
2018-07-07T09:03:53.933Z,7.67
2018-07-07T09:06:23.844Z,6.37
2018-07-07T09:08:53.728Z,7.33
2018-07-07T09:11:23.786Z,9.13
2018-07-07T09:13:53.708Z,6.37
2018-07-07T09:16:23.947Z,11.10
2018-07-07T09:18:53.979Z,6.93
2018-07-07T09:21:23.966Z,6.23
2018-07-07T09:23:54.147Z,7.03
2018-07-07T09:26:24.080Z,6.13
2018-07-07T09:28:54.185Z,7.60
2018-07-07T09:31:24.328Z,6.73
2018-07-07T09:33:54.495Z,7.90
2018-07-07T09:36:24.383Z,8.23
2018-07-07T09:38:55.052Z,6.77
2018-07-07T09:41:25.053Z,8.53
2018-07-07T09:43:55.259Z,9.30
2018-07-07T09:46:25.208Z,9.37
2018-07-07T09:48:55.323Z,8.93
2018-07-07T09:51:25.193Z,7.93
2018-07-07T09:53:55.911Z,10.07
2018-07-07T09:56:25.955Z,8.20
2018-07-07T09:58:56.153Z,8.63
2018-07-07T10:01:26.030Z,9.97
2018-07-07T10:03:55.937Z,6.87
2018-07-07T10:06:25.805Z,6.80
2018-07-07T10:08:55.549Z,6.93
2018-07-07T10:11:25.830Z,6.07
2018-07-07T10:13:55.732Z,7.07
2018-07-07T10:16:26.060Z,8.37
2018-07-07T10:18:56.424Z,6.67
2018-07-07T10:21:26.738Z,6.77
2018-07-07T10:23:56.977Z,6.70
2018-07-07T10:26:27.326Z,6.63
2018-07-07T10:28:57.209Z,10.17
2018-07-07T10:31:28.652Z,5.53
2018-07-07T10:33:58.535Z,6.93
2018-07-07T10:36:28.957Z,8.70
2018-07-07T10:38:59.152Z,5.90
2018-07-07T10:41:29.538Z,5.77
2018-07-07T10:43:59.529Z,5.60
2018-07-07T10:46:29.483Z,5.60
2018-07-07T10:48:59.449Z,5.23
2018-07-07T10:51:29.677Z,6.23
2018-07-07T10:53:59.639Z,5.37
2018-07-07T10:56:29.989Z,4.63
2018-07-07T10:59:00.002Z,7.60
2018-07-07T11:01:30.240Z,5.93
2018-07-07T11:04:00.248Z,5.77
2018-07-07T11:06:30.427Z,5.83
2018-07-07T11:09:00.191Z,5.37
2018-07-07T11:11:30.478Z,6.70
2018-07-07T11:14:00.394Z,6.00
2018-07-07T11:16:30.388Z,7.17
2018-07-07T11:19:00.512Z,5.00
2018-07-07T11:21:30.507Z,5.53
2018-07-07T11:24:00.486Z,6.50
2018-07-07T11:26:30.756Z,5.07
2018-07-07T11:29:01.124Z,7.60
2018-07-07T11:31:32.076Z,5.70
2018-07-07T11:34:02.147Z,6.57
2018-07-07T11:36:32.568Z,6.43
2018-07-07T11:39:03.059Z,8.13
2018-07-07T11:41:33.480Z,6.40
2018-07-07T11:44:03.716Z,5.90
2018-07-07T11:46:34.145Z,5.07
2018-07-07T11:49:04.467Z,8.17
2018-07-07T11:51:34.365Z,6.13
2018-07-07T11:54:04.293Z,6.67
2018-07-07T11:56:34.596Z,5.00
2018-07-07T11:59:04.596Z,5.90
2018-07-07T12:01:34.698Z,5.43
2018-07-07T12:04:04.605Z,5.30
2018-07-07T12:06:34.867Z,5.83
2018-07-07T12:09:05.435Z,4.87
2018-07-07T12:11:35.478Z,3.87
2018-07-07T12:14:05.389Z,5.87
2018-07-07T12:16:35.885Z,5.57
2018-07-07T12:19:05.848Z,4.20
2018-07-07T12:21:35.741Z,4.10
2018-07-07T12:24:05.762Z,4.00
2018-07-07T12:26:35.785Z,6.83
2018-07-07T12:29:06.137Z,5.80
2018-07-07T12:31:36.649Z,6.90
2018-07-07T12:34:06.881Z,4.30
2018-07-07T12:36:36.911Z,6.93
2018-07-07T12:39:07.613Z,4.20
2018-07-07T12:41:37.584Z,5.20
2018-07-07T12:44:07.728Z,6.40
2018-07-07T12:46:37.722Z,5.23
2018-07-07T12:49:08.196Z,4.47
2018-07-07T12:51:38.461Z,4.93
2018-07-07T12:54:08.791Z,5.17
2018-07-07T12:56:38.667Z,4.37
2018-07-07T12:59:08.720Z,4.30
2018-07-07T13:01:39.556Z,5.80
2018-07-07T13:04:09.466Z,4.23
2018-07-07T13:06:39.571Z,6.13
2018-07-07T13:09:09.431Z,5.53
2018-07-07T13:11:39.355Z,9.97
2018-07-07T13:14:09.398Z,4.80
2018-07-07T13:16:39.545Z,5.43
2018-07-07T13:19:09.635Z,5.63
2018-07-07T13:21:40.585Z,5.30
2018-07-07T13:24:10.479Z,6.10
2018-07-07T13:26:40.721Z,5.17
2018-07-07T13:29:10.768Z,5.13
2018-07-07T13:31:40.695Z,4.80
2018-07-07T13:34:10.675Z,6.93
2018-07-07T13:36:40.672Z,6.03
2018-07-07T13:39:10.636Z,5.17
2018-07-07T13:41:40.714Z,6.23
2018-07-07T13:44:10.967Z,5.93
2018-07-07T13:46:41.200Z,6.67
2018-07-07T13:49:11.453Z,4.67
2018-07-07T13:51:41.855Z,4.97
2018-07-07T13:54:11.825Z,5.03
2018-07-07T13:56:41.765Z,4.53
2018-07-07T13:59:12.037Z,4.70
2018-07-07T14:01:41.982Z,4.50
2018-07-07T14:04:11.853Z,5.33
2018-07-07T14:06:41.896Z,6.20
2018-07-07T14:09:11.661Z,5.20
2018-07-07T14:11:41.711Z,5.67
2018-07-07T14:14:11.615Z,5.93
2018-07-07T14:16:41.953Z,6.80
2018-07-07T14:19:12.238Z,5.00
2018-07-07T14:21:43.284Z,8.87
2018-07-07T14:24:13.376Z,5.27
2018-07-07T14:26:43.825Z,5.30
2018-07-07T14:29:13.779Z,4.50
2018-07-07T14:31:44.160Z,5.70
2018-07-07T14:34:14.164Z,6.03
2018-07-07T14:36:44.137Z,5.73
2018-07-07T14:39:14.138Z,5.67
2018-07-07T14:41:44.112Z,5.43
2018-07-07T14:44:13.823Z,5.57
2018-07-07T14:46:44.172Z,4.87
2018-07-07T14:49:14.398Z,4.83
2018-07-07T14:51:44.580Z,4.53
2018-07-07T14:54:14.799Z,4.67
2018-07-07T14:56:45.484Z,6.30
2018-07-07T14:59:16.107Z,4.80
2018-07-07T15:01:46.609Z,4.93
2018-07-07T15:04:17.161Z,5.17
2018-07-07T15:06:47.891Z,4.37
2018-07-07T15:09:18.023Z,7.77
2018-07-07T15:11:48.104Z,4.70
2018-07-07T15:14:18.112Z,4.67
2018-07-07T15:16:48.213Z,4.97
2018-07-07T15:19:18.509Z,7.37
2018-07-07T15:21:48.933Z,4.37
2018-07-07T15:24:18.842Z,5.00
2018-07-07T15:26:48.845Z,8.87
2018-07-07T15:29:19.037Z,6.87
2018-07-07T15:31:49.247Z,5.67
2018-07-07T15:34:19.497Z,4.27
2018-07-07T15:36:49.425Z,5.40
2018-07-07T15:39:19.653Z,5.30
2018-07-07T15:41:49.684Z,5.97
2018-07-07T15:44:19.879Z,5.20
2018-07-07T15:46:49.931Z,7.00
2018-07-07T15:49:20.247Z,4.90
2018-07-07T15:51:50.320Z,4.97
2018-07-07T15:54:20.411Z,7.13
2018-07-07T15:56:50.515Z,8.20
2018-07-07T15:59:20.493Z,7.00
2018-07-07T16:01:50.636Z,5.43
2018-07-07T16:04:20.676Z,6.33
2018-07-07T16:06:51.007Z,6.13
2018-07-07T16:09:20.727Z,7.30
2018-07-07T16:11:50.943Z,7.03
2018-07-07T16:14:21.010Z,6.63
2018-07-07T16:16:50.912Z,7.37
2018-07-07T16:19:21.244Z,6.53
2018-07-07T16:21:51.518Z,7.83
2018-07-07T16:24:21.391Z,6.37
2018-07-07T16:26:51.731Z,6.47
2018-07-07T16:29:21.745Z,6.10
2018-07-07T16:31:52.216Z,6.00
2018-07-07T16:34:22.508Z,5.90
2018-07-07T16:36:52.880Z,6.63
2018-07-07T16:39:23.169Z,7.57
2018-07-07T16:41:53.226Z,7.83
2018-07-07T16:44:23.274Z,6.73
2018-07-07T16:46:53.875Z,6.80
2018-07-07T16:49:23.751Z,6.67
2018-07-07T16:51:54.121Z,8.47
2018-07-07T16:54:24.793Z,7.70
2018-07-07T16:56:54.827Z,8.17
2018-07-07T16:59:25.019Z,6.60
2018-07-07T17:01:54.985Z,9.03
2018-07-07T17:04:24.916Z,6.60
2018-07-07T17:07:00.061Z,9.67
2018-07-07T17:09:29.827Z,6.30
2018-07-07T17:12:00.181Z,7.13
2018-07-07T17:14:30.335Z,7.80
2018-07-07T17:17:00.540Z,7.67
2018-07-07T17:19:30.460Z,10.27
2018-07-07T17:22:00.848Z,7.63
2018-07-07T17:24:32.027Z,6.10
2018-07-07T17:27:02.044Z,8.40
2018-07-07T17:29:31.986Z,9.37
2018-07-07T17:32:02.678Z,6.93
2018-07-07T17:34:32.584Z,7.27
2018-07-07T17:37:02.693Z,11.50
2018-07-07T17:39:32.646Z,7.23
2018-07-07T17:42:02.720Z,11.93
2018-07-07T17:44:32.829Z,9.13
2018-07-07T17:47:03.366Z,7.27
2018-07-07T17:49:33.740Z,7.57
2018-07-07T17:52:03.820Z,7.57
2018-07-07T17:54:34.320Z,9.00
2018-07-07T17:57:04.674Z,7.43
2018-07-07T17:59:35.028Z,7.67
2018-07-07T18:02:05.051Z,9.57
2018-07-07T18:04:35.717Z,8.07
2018-07-07T18:07:12.207Z,7.97
2018-07-07T18:09:42.001Z,8.87
2018-07-07T18:12:11.976Z,7.80
2018-07-07T18:14:41.931Z,7.83
2018-07-07T18:17:11.876Z,9.43
2018-07-07T18:19:42.182Z,9.07
2018-07-07T18:22:12.193Z,6.87
2018-07-07T18:24:42.469Z,7.70
2018-07-07T18:27:12.386Z,10.00
2018-07-07T18:29:42.277Z,7.80
2018-07-07T18:32:12.573Z,8.90
2018-07-07T18:34:42.975Z,9.20
2018-07-07T18:37:12.981Z,8.70
2018-07-07T18:39:42.913Z,7.43
2018-07-07T18:42:13.489Z,8.60
2018-07-07T18:44:43.686Z,9.33
2018-07-07T18:47:14.812Z,10.20
2018-07-07T18:49:45.153Z,7.67
2018-07-07T18:52:15.364Z,7.43
2018-07-07T18:54:45.322Z,11.20
2018-07-07T18:57:15.621Z,8.93
2018-07-07T18:59:45.956Z,8.67
2018-07-07T19:02:16.402Z,9.20
2018-07-07T19:04:46.299Z,9.63
2018-07-07T19:07:16.390Z,12.07
2018-07-07T19:09:46.345Z,10.70
2018-07-07T19:12:16.533Z,9.03
2018-07-07T19:14:46.465Z,8.90
2018-07-07T19:17:16.834Z,8.63
2018-07-07T19:19:46.660Z,9.27
2018-07-07T19:22:21.824Z,9.33
2018-07-07T19:24:57.112Z,11.33
2018-07-07T19:27:27.799Z,9.03
2018-07-07T19:29:58.073Z,9.03
2018-07-07T19:32:33.873Z,9.77
2018-07-07T19:35:09.127Z,8.43
2018-07-07T19:37:40.184Z,8.13
2018-07-07T19:40:11.391Z,8.53
2018-07-07T19:42:41.769Z,8.07
2018-07-07T19:45:11.807Z,9.83
2018-07-07T19:47:41.898Z,8.27
2018-07-07T19:50:11.832Z,13.17
2018-07-07T19:52:41.880Z,8.37
2018-07-07T19:55:11.796Z,9.70
2018-07-07T19:57:42.189Z,7.97
2018-07-07T20:00:12.897Z,7.90
2018-07-07T20:02:43.301Z,8.90
2018-07-07T20:05:13.473Z,7.37
2018-07-07T20:07:43.481Z,8.30
2018-07-07T20:10:13.751Z,7.93
2018-07-07T20:12:43.866Z,7.07
2018-07-07T20:15:13.764Z,6.70
2018-07-07T20:17:54.555Z,8.27
2018-07-07T20:20:36.052Z,7.50
2018-07-07T20:23:07.296Z,5.63
2018-07-07T20:25:37.750Z,7.27
2018-07-07T20:28:13.046Z,5.67
2018-07-07T20:30:42.988Z,6.97
2018-07-07T20:33:12.981Z,9.07
2018-07-07T20:35:42.860Z,6.40
2018-07-07T20:38:12.943Z,9.27
2018-07-07T20:40:43.137Z,7.63
2018-07-07T20:43:13.378Z,12.07
2018-07-07T20:45:43.637Z,5.33
2018-07-07T20:48:13.855Z,5.63
2018-07-07T20:50:43.809Z,6.23
2018-07-07T20:53:13.943Z,5.27
2018-07-07T20:55:44.032Z,5.60
2018-07-07T20:58:14.228Z,5.80
2018-07-07T21:00:44.089Z,7.33
2018-07-07T21:03:14.206Z,5.87
2018-07-07T21:05:44.066Z,5.90
2018-07-07T21:08:14.230Z,7.23
2018-07-07T21:10:44.161Z,7.97
2018-07-07T21:13:14.463Z,7.67
2018-07-07T21:15:44.525Z,7.50
2018-07-07T21:18:14.708Z,5.30
2018-07-07T21:20:44.563Z,7.37
2018-07-07T21:23:14.609Z,7.80
2018-07-07T21:25:44.440Z,6.37
2018-07-07T21:28:15.368Z,5.53
2018-07-07T21:30:45.591Z,4.67
2018-07-07T21:33:15.862Z,6.33
2018-07-07T21:35:46.464Z,7.50
2018-07-07T21:38:16.678Z,5.63
2018-07-07T21:40:47.075Z,6.67
2018-07-07T21:43:17.289Z,6.47
2018-07-07T21:45:47.932Z,7.17
2018-07-07T21:48:18.436Z,5.10
2018-07-07T21:50:48.561Z,6.30
2018-07-07T21:53:18.957Z,5.23
2018-07-07T21:55:49.279Z,5.57
2018-07-07T21:58:24.323Z,5.60
2018-07-07T22:01:11.483Z,5.13
2018-07-07T22:03:46.852Z,5.73
2018-07-07T22:06:21.915Z,4.97
2018-07-07T22:08:51.733Z,8.13
2018-07-07T22:11:22.152Z,5.93
2018-07-07T22:13:52.216Z,6.43
2018-07-07T22:16:22.667Z,7.50
2018-07-07T22:18:53.096Z,6.63
2018-07-07T22:21:53.597Z,6.97
2018-07-07T22:24:23.879Z,6.13
2018-07-07T22:26:57.809Z,6.13
2018-07-07T22:29:28.097Z,5.63
2018-07-07T22:31:59.505Z,6.10
2018-07-07T22:34:34.881Z,7.30
2018-07-07T22:37:04.764Z,6.77
2018-07-07T22:39:35.991Z,7.67
2018-07-07T22:42:07.321Z,6.90
2018-07-07T22:44:38.372Z,5.33
2018-07-07T22:47:08.660Z,7.93
2018-07-07T22:49:38.741Z,5.50
2018-07-07T22:52:09.832Z,5.27
2018-07-07T22:54:39.815Z,7.77
2018-07-07T22:57:09.868Z,7.33
2018-07-07T22:59:40.627Z,6.80
2018-07-07T23:02:10.726Z,6.77
2018-07-07T23:04:40.825Z,8.53
2018-07-07T23:07:10.663Z,5.47
2018-07-07T23:09:40.701Z,7.33
2018-07-07T23:12:10.872Z,6.73
2018-07-07T23:14:40.735Z,7.83
2018-07-07T23:17:11.318Z,6.33
2018-07-07T23:19:41.295Z,7.77
2018-07-07T23:22:11.663Z,5.50
2018-07-07T23:24:41.824Z,5.83
2018-07-07T23:27:11.841Z,7.17
2018-07-07T23:29:41.734Z,5.47
2018-07-07T23:32:11.777Z,5.83
2018-07-07T23:34:41.785Z,7.20
2018-07-07T23:37:11.858Z,7.63
2018-07-07T23:39:41.858Z,5.43
2018-07-07T23:42:12.147Z,6.23
2018-07-07T23:44:42.398Z,7.47
2018-07-07T23:47:12.432Z,6.90
2018-07-07T23:49:42.850Z,6.90
2018-07-07T23:52:12.751Z,7.60
2018-07-07T23:54:42.941Z,6.07
2018-07-07T23:57:12.870Z,8.50
2018-07-07T23:59:42.847Z,7.03
